• Join FlightAware (Why Join?)
  • Login
  • US Flag 
02:20AM EDT


 

Airport Tracker/Info


-or-


 

Live Flight TrackerFlight Track Log ✈ SKW5634 ✈ 27-Jul-2012 ✈ KSFO - KRNO

Flight Track Log - Related Links

Times and Time Zones

All times are in EDT time to prevent confusion due to time zone crossing. See the SKW5634 flight status page for this flight to view local times or setup timezone preferences in your user account.

Time Position Orientation Groundspeed Altitude Reporting Facility
EDT Latitude Longitude Course Direction KTS MPH feet Rate Location/Type
08:41PM 37.6333 -122.3667 50° Northeast 163 188 1,000  Level Northern Cal TRACON
08:42PM 37.6667 -122.3167 47° Northeast 237 273 3,000 2,520 Climbing Northern Cal TRACON
08:43PM 37.7167 -122.2500 53° Northeast 258 297 5,900 2,760 Climbing Northern Cal TRACON
08:44PM 37.7667 -122.1667 62° Northeast 282 325 8,600 2,220 Climbing Northern Cal TRACON
08:46PM 37.8378 -121.9964 59° Northeast 314 361 12,600 1,920 Climbing Oakland Center
08:47PM 37.8822 -121.9025 63° Northeast 314 361 14,400 1,800 Climbing Oakland Center
08:48PM 37.9228 -121.8003 59° Northeast 314 361 16,200 1,800 Climbing Oakland Center
08:49PM 37.9714 -121.6981 60° Northeast 319 367 18,000 1,620 Climbing Oakland Center
08:50PM 38.0200 -121.5903 61° Northeast 330 380 19,500 1,440 Climbing Oakland Center
08:51PM 38.0683 -121.4800 61° Northeast 340 391 20,900 1,320 Climbing Oakland Center
08:52PM 38.1167 -121.3694 59° Northeast 346 398 22,200 1,020 Climbing Oakland Center
08:53PM 38.1692 -121.2561 61° Northeast 353 406 23,000 360 Climbing Oakland Center
08:54PM 38.2236 -121.1294 60° Northeast 373 429 23,000  Level Oakland Center
08:55PM 38.2844 -120.9972 61° Northeast 404 465 23,000  Level Oakland Center
08:56PM 38.3447 -120.8597 61° Northeast 424 488 23,000  Level Oakland Center
08:57PM 38.4050 -120.7217 60° Northeast 442 509 23,000  Level Oakland Center
08:58PM 38.4650 -120.5861 60° Northeast 437 503 23,000  Level Oakland Center
08:59PM 38.5231 -120.4558 61° Northeast 437 503 23,000  Level Oakland Center
09:00PM 38.5808 -120.3225 61° Northeast 431 496 23,000 -780 Level Oakland Center
09:01PM 38.6364 -120.1944 59° Northeast 425 489 21,500 -1,680 Descending Oakland Center
09:02PM 38.6897 -120.0794 62° Northeast 399 459 19,700 -1,740 Descending Oakland Center
09:03PM 38.7347 -119.9697 61° Northeast 368 423 18,100 -1,500 Descending Oakland Center
09:04PM 38.7797 -119.8653 52° Northeast 342 394 16,700 -1,560 Descending Oakland Center
09:05PM 38.8331 -119.7764 North 298 343 15,000 -1,620 Descending Oakland Center
09:06PM 38.9225 -119.7697 359° North 268 308 13,500 -1,560 Descending Oakland Center
09:07PM 39.0039 -119.7711 North 279 321 11,900 -1,560 Descending Oakland Center
09:08PM 39.0811 -119.7697 North 279 321 10,400 -1,440 Descending Oakland Center
09:09PM 39.1542 -119.7683 North 268 308 9,100 -660 Descending Oakland Center
09:10PM 39.2353 -119.7669 North 273 314 9,100  Level Oakland Center